Time;durP1;ratioP1;P1;durP2;ratioP2;P2;SDS_P1;SDS_P2;PMS_P1;PMS_P2;Temp;Humidity;BMP_temperature;BMP_pressure;BME280_temperature;BME280_humidity;BME280_pressure;Samples;Min_cycle;Max_cycle;Signal;HPM_P1;HPM_P2
2022/12/12 00:00:39;;;;;;;;;;;;;;;;;;5063254;28;19912;-76
2022/12/12 00:03:05;;;;;;;;;;;;;;;;;;5066507;28;19913;-76
2022/12/12 00:05:31;;;;;;;;;;;;;;;;;;5059335;28;19908;-76
2022/12/12 00:07:57;;;;;;;;;;;;;;;;;;5063152;28;19915;-76
2022/12/12 00:10:23;;;;;;;;;;;;;;;;;;5061996;28;19962;-76
2022/12/12 00:12:49;;;;;;;;;;;;;;;;;;5055277;28;19938;-76
2022/12/12 00:15:15;;;;;;;;;;;;;;;;;;5060418;28;19940;-76
2022/12/12 00:17:41;;;;;;;;;;;;;;;;;;5063799;28;19909;-76
2022/12/12 00:20:07;;;;;;;;;;;;;;;;;;5064771;28;19909;-76
2022/12/12 00:22:32;;;;;;;;;;;;;;;;;;5064347;28;19908;-76
2022/12/12 00:24:58;;;;;;;;;;;;;;;;;;5057643;28;19916;-76
2022/12/12 00:27:24;;;;;;;;;;;;;;;;;;5066432;28;19908;-76
2022/12/12 00:29:50;;;;;;;;;;;;;;;;;;5057236;28;19912;-76
2022/12/12 00:32:16;;;;;;;;;;;;;;;;;;5059812;28;19954;-76
2022/12/12 00:34:42;;;;;;;;;;;;;;;;;;5061682;28;19918;-76
2022/12/12 00:37:07;;;;;;;;;;;;;;;;;;5055961;28;19909;-76
2022/12/12 00:39:33;;;;;;;;;;;;;;;;;;5063791;28;20406;-76
2022/12/12 00:41:59;;;;;;;;;;;;;;;;;;5062865;28;20384;-76
2022/12/12 00:44:25;;;;;;;;;;;;;;;;;;5060403;28;20411;-76
2022/12/12 00:46:51;;;;;;;;;;;;;;;;;;5061002;28;19908;-76
2022/12/12 00:49:17;;;;;;;;;;;;;;;;;;5059336;28;19931;-76
2022/12/12 00:51:43;;;;;;;;;;;;;;;;;;5056895;28;20379;-76
2022/12/12 00:54:09;;;;;;;;;;;;;;;;;;5065470;28;19908;-76
2022/12/12 00:56:35;;;;;;;;;;;;;;;;;;5061499;28;20046;-76
2022/12/12 00:59:01;;;;;;;;;;;;;;;;;;5065538;28;19954;-76
2022/12/12 01:01:27;;;;;;;;;;;;;;;;;;5058986;28;19915;-76
2022/12/12 01:03:53;;;;;;;;;;;;;;;;;;5061408;28;19912;-76
2022/12/12 01:06:18;;;;;;;;;;;;;;;;;;5062200;28;19952;-76
2022/12/12 01:08:44;;;;;;;;;;;;;;;;;;5057688;28;19908;-76
2022/12/12 01:11:10;;;;;;;;;;;;;;;;;;5064372;28;19944;-76
2022/12/12 01:13:36;;;;;;;;;;;;;;;;;;5064774;28;19995;-77
2022/12/12 01:16:02;;;;;;;;;;;;;;;;;;5060232;28;20342;-77
2022/12/12 01:18:28;;;;;;;;;;;;;;;;;;5059067;28;20413;-77
2022/12/12 01:20:54;;;;;;;;;;;;;;;;;;5063735;28;19908;-77
2022/12/12 01:23:19;;;;;;;;;;;;;;;;;;5056533;28;20401;-77
2022/12/12 01:25:45;;;;;;;;;;;;;;;;;;5063563;28;20052;-77
2022/12/12 01:28:11;;;;;;;;;;;;;;;;;;5059068;28;19935;-77
2022/12/12 01:30:37;;;;;;;;;;;;;;;;;;5059049;28;19999;-76
2022/12/12 01:33:03;;;;;;;;;;;;;;;;;;5061134;28;19923;-76
2022/12/12 01:35:29;;;;;;;;;;;;;;;;;;5053752;28;20279;-76
2022/12/12 01:37:55;;;;;;;;;;;;;;;;;;5060708;28;19943;-77
2022/12/12 01:40:21;;;;;;;;;;;;;;;;;;5055741;28;19959;-76
2022/12/12 01:42:46;;;;;;;;;;;;;;;;;;5055904;28;19909;-76
2022/12/12 01:45:12;;;;;;;;;;;;;;;;;;5061821;28;19908;-76
2022/12/12 01:47:38;;;;;;;;;;;;;;;;;;5064854;28;19909;-76
2022/12/12 01:50:04;;;;;;;;;;;;;;;;;;5058752;28;19923;-76
2022/12/12 01:52:30;;;;;;;;;;;;;;;;;;5061054;28;19908;-76
2022/12/12 01:54:56;;;;;;;;;;;;;;;;;;5063809;28;20070;-76
2022/12/12 01:57:21;;;;;;;;;;;;;;;;;;5061749;28;19912;-76
2022/12/12 01:59:47;;;;;;;;;;;;;;;;;;5061881;28;19908;-76
2022/12/12 02:02:13;;;;;;;;;;;;;;;;;;5066251;28;19912;-76
2022/12/12 02:04:39;;;;;;;;;;;;;;;;;;5061470;28;19908;-76
2022/12/12 02:07:05;;;;;;;;;;;;;;;;;;5062636;28;19912;-76
2022/12/12 02:09:31;;;;;;;;;;;;;;;;;;5066935;28;19912;-76
2022/12/12 02:11:57;;;;;;;;;;;;;;;;;;5063523;28;19908;-76
2022/12/12 02:14:23;;;;;;;;;;;;;;;;;;5064748;28;19912;-76
2022/12/12 02:16:49;;;;;;;;;;;;;;;;;;5061822;28;20073;-77
2022/12/12 02:19:15;;;;;;;;;;;;;;;;;;5066549;28;19916;-77
2022/12/12 02:21:40;;;;;;;;;;;;;;;;;;5066732;28;19908;-77
2022/12/12 02:24:06;;;;;;;;;;;;;;;;;;5065828;28;22121;-76
2022/12/12 02:26:32;;;;;;;;;;;;;;;;;;5062745;28;19936;-77
2022/12/12 02:28:58;;;;;;;;;;;;;;;;;;5062832;28;20467;-77
2022/12/12 02:31:24;;;;;;;;;;;;;;;;;;5062197;28;20406;-76
2022/12/12 02:33:50;;;;;;;;;;;;;;;;;;5066026;28;20430;-77
2022/12/12 02:36:15;;;;;;;;;;;;;;;;;;5065898;28;19912;-76
2022/12/12 02:38:41;;;;;;;;;;;;;;;;;;5068189;28;19912;-76
2022/12/12 02:41:07;;;;;;;;;;;;;;;;;;5068643;28;19912;-76
2022/12/12 02:43:33;;;;;;;;;;;;;;;;;;5062634;28;19965;-75
2022/12/12 02:45:59;;;;;;;;;;;;;;;;;;5067345;28;19951;-76
2022/12/12 02:48:25;;;;;;;;;;;;;;;;;;5065954;28;20280;-76
2022/12/12 02:50:51;;;;;;;;;;;;;;;;;;5067275;28;19916;-76
2022/12/12 02:53:16;;;;;;;;;;;;;;;;;;5066332;28;19916;-76
2022/12/12 02:55:42;;;;;;;;;;;;;;;;;;5063141;28;19991;-76
2022/12/12 02:58:08;;;;;;;;;;;;;;;;;;5061752;28;20389;-76
2022/12/12 03:00:34;;;;;;;;;;;;;;;;;;5068569;28;20366;-77
2022/12/12 03:08:29;;;;;;;;;;;;;;;;;;5065817;28;19915;-77
2022/12/12 03:10:55;;;;;;;;;;;;;;;;;;5064616;28;19912;-77
2022/12/12 03:13:21;;;;;;;;;;;;;;;;;;5065560;28;19908;-77
2022/12/12 03:15:47;;;;;;;;;;;;;;;;;;5067775;28;19908;-76
2022/12/12 03:18:13;;;;;;;;;;;;;;;;;;5062133;28;19935;-76
2022/12/12 03:20:39;;;;;;;;;;;;;;;;;;5067138;28;19916;-76
2022/12/12 03:23:04;;;;;;;;;;;;;;;;;;5065245;28;20013;-76
2022/12/12 03:25:31;;;;;;;;;;;;;;;;;;5062900;28;19915;-76
2022/12/12 03:27:57;;;;;;;;;;;;;;;;;;5062919;28;19908;-77
2022/12/12 03:30:23;;;;;;;;;;;;;;;;;;5060384;28;19916;-76
2022/12/12 03:32:49;;;;;;;;;;;;;;;;;;5058971;28;20046;-76
2022/12/12 03:35:15;;;;;;;;;;;;;;;;;;5058776;28;20054;-76
2022/12/12 03:37:41;;;;;;;;;;;;;;;;;;5066994;28;20328;-76
2022/12/12 03:40:07;;;;;;;;;;;;;;;;;;5063310;28;19908;-76
2022/12/12 03:42:33;;;;;;;;;;;;;;;;;;5058153;28;19908;-76
2022/12/12 03:44:58;;;;;;;;;;;;;;;;;;5056827;28;19909;-75
2022/12/12 03:47:24;;;;;;;;;;;;;;;;;;5063581;28;19909;-75
2022/12/12 03:49:50;;;;;;;;;;;;;;;;;;5064734;28;19919;-74
2022/12/12 03:52:16;;;;;;;;;;;;;;;;;;5059962;28;19920;-74
2022/12/12 03:54:42;;;;;;;;;;;;;;;;;;5060591;28;19962;-75
2022/12/12 03:57:07;;;;;;;;;;;;;;;;;;5064970;28;19916;-76
2022/12/12 03:59:34;;;;;;;;;;;;;;;;;;5063860;28;19919;-76
2022/12/12 04:01:59;;;;;;;;;;;;;;;;;;5063897;28;19904;-76
2022/12/12 04:04:25;;;;;;;;;;;;;;;;;;5062877;28;19909;-76
2022/12/12 04:06:51;;;;;;;;;;;;;;;;;;5056854;28;19955;-76
2022/12/12 04:14:46;;;;;;;;;;;;;;;;;;5060156;28;19915;-76
2022/12/12 04:17:12;;;;;;;;;;;;;;;;;;5066202;28;19912;-76
2022/12/12 04:25:07;;;;;;;;;;;;;;;;;;5062946;28;20510;-76
2022/12/12 04:27:33;;;;;;;;;;;;;;;;;;5061150;28;19912;-79
2022/12/12 04:29:59;;;;;;;;;;;;;;;;;;5061593;28;20390;-76
2022/12/12 04:32:25;;;;;;;;;;;;;;;;;;5063667;28;20398;-76
2022/12/12 04:34:51;;;;;;;;;;;;;;;;;;5063488;28;19909;-75
2022/12/12 04:37:17;;;;;;;;;;;;;;;;;;5062783;28;19939;-76
2022/12/12 04:39:42;;;;;;;;;;;;;;;;;;5066717;28;20362;-76
2022/12/12 04:42:08;;;;;;;;;;;;;;;;;;5061872;28;20009;-76
2022/12/12 04:44:34;;;;;;;;;;;;;;;;;;5057987;28;19911;-76
2022/12/12 04:47:00;;;;;;;;;;;;;;;;;;5066003;28;19914;-76
2022/12/12 04:49:26;;;;;;;;;;;;;;;;;;5063630;28;19999;-76
2022/12/12 04:51:52;;;;;;;;;;;;;;;;;;5054943;28;19920;-76
2022/12/12 04:54:18;;;;;;;;;;;;;;;;;;5068173;28;19912;-76
2022/12/12 04:56:43;;;;;;;;;;;;;;;;;;5061147;28;19917;-76
2022/12/12 04:59:09;;;;;;;;;;;;;;;;;;5058376;28;19912;-76
2022/12/12 05:01:35;;;;;;;;;;;;;;;;;;5065643;28;19908;-76
2022/12/12 05:04:01;;;;;;;;;;;;;;;;;;5052754;28;19909;-76
2022/12/12 05:06:27;;;;;;;;;;;;;;;;;;5067061;28;20275;-76
2022/12/12 05:08:53;;;;;;;;;;;;;;;;;;5060201;28;19913;-76
2022/12/12 05:11:20;;;;;;;;;;;;;;;;;;5067879;28;19935;-76
2022/12/12 05:13:46;;;;;;;;;;;;;;;;;;5057595;28;19966;-76
2022/12/12 05:16:12;;;;;;;;;;;;;;;;;;5065713;28;20359;-76
2022/12/12 05:18:38;;;;;;;;;;;;;;;;;;5053895;28;20496;-76
2022/12/12 05:21:04;;;;;;;;;;;;;;;;;;5063584;28;19908;-76
2022/12/12 05:23:30;;;;;;;;;;;;;;;;;;5063742;28;19908;-76
2022/12/12 05:25:55;;;;;;;;;;;;;;;;;;5055637;28;20061;-76
2022/12/12 05:28:21;;;;;;;;;;;;;;;;;;5066790;28;20259;-76
2022/12/12 05:30:47;;;;;;;;;;;;;;;;;;5055572;28;19927;-76
2022/12/12 05:33:13;;;;;;;;;;;;;;;;;;5059283;28;19916;-76
2022/12/12 05:35:39;;;;;;;;;;;;;;;;;;5065823;28;19908;-75
2022/12/12 05:38:05;;;;;;;;;;;;;;;;;;5065595;28;20069;-76
2022/12/12 05:40:33;;;;;;;;;;;;;;;;;;5067222;28;19908;-76
2022/12/12 05:42:59;;;;;;;;;;;;;;;;;;5059777;28;19916;-76
2022/12/12 05:45:25;;;;;;;;;;;;;;;;;;5067327;28;20026;-76
2022/12/12 05:47:51;;;;;;;;;;;;;;;;;;5065660;28;20007;-76
2022/12/12 05:50:17;;;;;;;;;;;;;;;;;;5068206;28;19920;-76
2022/12/12 05:52:43;;;;;;;;;;;;;;;;;;5069538;28;20434;-76
2022/12/12 05:55:09;;;;;;;;;;;;;;;;;;5064030;28;19927;-76
2022/12/12 05:57:35;;;;;;;;;;;;;;;;;;5063829;28;19999;-76
2022/12/12 06:00:01;;;;;;;;;;;;;;;;;;5066041;28;20566;-76
2022/12/12 06:02:27;;;;;;;;;;;;;;;;;;5067535;28;20508;-76
2022/12/12 06:04:53;;;;;;;;;;;;;;;;;;5065500;28;20028;-76
2022/12/12 06:07:18;;;;;;;;;;;;;;;;;;5062802;28;19935;-76
2022/12/12 06:09:44;;;;;;;;;;;;;;;;;;5063672;28;20006;-84
2022/12/12 06:12:11;;;;;;;;;;;;;;;;;;5066262;28;19912;-80
2022/12/12 06:14:36;;;;;;;;;;;;;;;;;;5067774;28;19908;-79
2022/12/12 06:17:02;;;;;;;;;;;;;;;;;;5061250;28;19916;-77
2022/12/12 06:19:28;;;;;;;;;;;;;;;;;;5065540;28;19911;-78
2022/12/12 06:21:54;;;;;;;;;;;;;;;;;;5057683;28;19916;-78
2022/12/12 06:24:20;;;;;;;;;;;;;;;;;;5064537;28;19912;-78
2022/12/12 06:26:46;;;;;;;;;;;;;;;;;;5063689;28;19948;-78
2022/12/12 06:29:13;;;;;;;;;;;;;;;;;;5065538;28;19909;-78
2022/12/12 06:31:39;;;;;;;;;;;;;;;;;;5066243;28;20271;-78
2022/12/12 06:34:05;;;;;;;;;;;;;;;;;;5065527;28;19917;-78
2022/12/12 06:36:31;;;;;;;;;;;;;;;;;;5067741;28;20580;-78
2022/12/12 06:38:56;;;;;;;;;;;;;;;;;;5064892;28;19998;-78
2022/12/12 06:41:22;;;;;;;;;;;;;;;;;;5066292;28;19931;-77
2022/12/12 06:43:48;;;;;;;;;;;;;;;;;;5067292;28;19916;-78
2022/12/12 06:46:14;;;;;;;;;;;;;;;;;;5065346;28;19908;-78
2022/12/12 06:48:40;;;;;;;;;;;;;;;;;;5066051;28;20324;-78
2022/12/12 06:51:06;;;;;;;;;;;;;;;;;;5068463;28;19924;-78
2022/12/12 06:53:35;;;;;;;;;;;;;;;;;;5066770;28;19923;-78
2022/12/12 06:56:01;;;;;;;;;;;;;;;;;;5067529;28;19916;-78
2022/12/12 06:58:26;;;;;;;;;;;;;;;;;;5066160;28;19922;-78
2022/12/12 07:00:52;;;;;;;;;;;;;;;;;;5064104;28;19916;-78
2022/12/12 07:03:18;;;;;;;;;;;;;;;;;;5066607;28;20359;-78
2022/12/12 07:05:44;;;;;;;;;;;;;;;;;;5066160;28;20660;-78
2022/12/12 07:08:10;;;;;;;;;;;;;;;;;;5063289;28;19914;-78
2022/12/12 07:10:36;;;;;;;;;;;;;;;;;;5063948;28;20002;-77
2022/12/12 07:13:02;;;;;;;;;;;;;;;;;;5063341;28;19915;-77
2022/12/12 07:15:27;;;;;;;;;;;;;;;;;;5065118;28;19916;-78
2022/12/12 07:17:53;;;;;;;;;;;;;;;;;;5065497;28;19916;-78
2022/12/12 07:20:19;;;;;;;;;;;;;;;;;;5066523;28;19987;-78
2022/12/12 07:22:45;;;;;;;;;;;;;;;;;;5067290;28;19908;-77
2022/12/12 07:25:11;;;;;;;;;;;;;;;;;;5067122;28;19927;-77
2022/12/12 07:27:37;;;;;;;;;;;;;;;;;;5067644;28;19915;-78
2022/12/12 07:30:03;;;;;;;;;;;;;;;;;;5058583;28;19947;-78
2022/12/12 07:32:29;;;;;;;;;;;;;;;;;;5066502;28;20029;-77
2022/12/12 07:34:54;;;;;;;;;;;;;;;;;;5064858;28;19920;-78
2022/12/12 07:37:20;;;;;;;;;;;;;;;;;;5062540;28;19912;-78
2022/12/12 07:39:46;;;;;;;;;;;;;;;;;;5065071;28;19916;-78
2022/12/12 07:42:12;;;;;;;;;;;;;;;;;;5063489;28;19940;-77
2022/12/12 07:44:38;;;;;;;;;;;;;;;;;;5065134;28;19923;-78
2022/12/12 07:47:04;;;;;;;;;;;;;;;;;;5065542;28;19919;-78
2022/12/12 07:49:29;;;;;;;;;;;;;;;;;;5067000;28;19916;-78
2022/12/12 07:51:55;;;;;;;;;;;;;;;;;;5066098;28;19920;-78
2022/12/12 07:54:21;;;;;;;;;;;;;;;;;;5064753;28;19988;-78
2022/12/12 07:56:47;;;;;;;;;;;;;;;;;;5064358;28;20242;-78
2022/12/12 07:59:13;;;;;;;;;;;;;;;;;;5064936;28;20002;-80
2022/12/12 08:01:39;;;;;;;;;;;;;;;;;;5065962;28;19908;-78
2022/12/12 08:04:04;;;;;;;;;;;;;;;;;;5061457;28;19921;-77
2022/12/12 08:06:31;;;;;;;;;;;;;;;;;;5064383;28;19948;-77
2022/12/12 08:08:57;;;;;;;;;;;;;;;;;;5059013;28;19965;-77
2022/12/12 08:11:25;;;;;;;;;;;;;;;;;;5054648;28;19928;-75
2022/12/12 08:13:51;;;;;;;;;;;;;;;;;;5051507;28;19908;-78
2022/12/12 08:16:17;;;;;;;;;;;;;;;;;;5057391;28;19961;-78
2022/12/12 08:18:43;;;;;;;;;;;;;;;;;;5054879;28;19947;-76
2022/12/12 08:21:09;;;;;;;;;;;;;;;;;;5047828;28;19909;-77
2022/12/12 08:23:35;;;;;;;;;;;;;;;;;;5055110;28;19908;-77
2022/12/12 08:26:01;;;;;;;;;;;;;;;;;;5058021;28;20267;-77
2022/12/12 08:28:27;;;;;;;;;;;;;;;;;;5056456;28;19912;-78
2022/12/12 08:30:53;;;;;;;;;;;;;;;;;;5058636;28;20435;-77
2022/12/12 08:33:18;;;;;;;;;;;;;;;;;;5053319;28;19912;-77
2022/12/12 08:35:44;;;;;;;;;;;;;;;;;;5057929;28;19912;-77
2022/12/12 08:38:10;;;;;;;;;;;;;;;;;;5054555;28;19908;-76
2022/12/12 08:40:36;;;;;;;;;;;;;;;;;;5056713;28;19983;-76
2022/12/12 08:43:02;;;;;;;;;;;;;;;;;;5052591;28;19908;-76
2022/12/12 08:45:28;;;;;;;;;;;;;;;;;;5050553;28;19909;-75
2022/12/12 08:47:53;;;;;;;;;;;;;;;;;;5052632;28;19973;-75
2022/12/12 08:50:19;;;;;;;;;;;;;;;;;;5052595;28;20015;-76
2022/12/12 08:52:45;;;;;;;;;;;;;;;;;;5052647;28;19908;-75
2022/12/12 08:55:11;;;;;;;;;;;;;;;;;;5052647;28;19917;-76
2022/12/12 08:57:37;;;;;;;;;;;;;;;;;;5051561;28;19986;-76
2022/12/12 09:00:03;;;;;;;;;;;;;;;;;;5048106;28;19909;-75
2022/12/12 09:02:28;;;;;;;;;;;;;;;;;;5059083;28;19973;-75
2022/12/12 09:04:54;;;;;;;;;;;;;;;;;;5057273;28;19908;-76
2022/12/12 09:07:20;;;;;;;;;;;;;;;;;;5055230;28;19909;-79
2022/12/12 09:09:46;;;;;;;;;;;;;;;;;;5055947;28;19920;-77
2022/12/12 09:12:12;;;;;;;;;;;;;;;;;;5057112;28;19917;-76
2022/12/12 09:14:38;;;;;;;;;;;;;;;;;;5059274;28;19915;-77
2022/12/12 09:17:04;;;;;;;;;;;;;;;;;;5057717;28;20296;-77
2022/12/12 09:19:30;;;;;;;;;;;;;;;;;;5056993;28;20668;-77
2022/12/12 09:21:55;;;;;;;;;;;;;;;;;;5061114;28;19992;-76
2022/12/12 09:24:22;;;;;;;;;;;;;;;;;;5052725;28;19913;-76
2022/12/12 09:26:48;;;;;;;;;;;;;;;;;;5061489;28;19913;-76
2022/12/12 09:29:14;;;;;;;;;;;;;;;;;;5057482;28;19909;-76
2022/12/12 09:31:40;;;;;;;;;;;;;;;;;;5066093;28;19912;-76
2022/12/12 09:34:06;;;;;;;;;;;;;;;;;;5065756;28;19912;-77
2022/12/12 09:36:35;;;;;;;;;;;;;;;;;;5061315;28;19935;-76
2022/12/12 09:39:01;;;;;;;;;;;;;;;;;;5061809;28;19912;-76
2022/12/12 09:41:29;;;;;;;;;;;;;;;;;;5059233;28;19909;-75
2022/12/12 09:43:55;;;;;;;;;;;;;;;;;;5057445;28;19908;-76
2022/12/12 09:46:21;;;;;;;;;;;;;;;;;;5055988;28;19928;-76
2022/12/12 09:48:47;;;;;;;;;;;;;;;;;;5062387;28;19908;-76
2022/12/12 09:51:13;;;;;;;;;;;;;;;;;;5058268;28;19931;-76
2022/12/12 09:53:38;;;;;;;;;;;;;;;;;;5059660;28;19956;-76
2022/12/12 09:56:04;;;;;;;;;;;;;;;;;;5054831;28;19944;-76
2022/12/12 09:58:30;;;;;;;;;;;;;;;;;;5055018;28;19916;-76
2022/12/12 10:00:56;;;;;;;;;;;;;;;;;;5052904;28;19927;-76
2022/12/12 10:03:22;;;;;;;;;;;;;;;;;;5053358;28;19908;-76
2022/12/12 10:05:48;;;;;;;;;;;;;;;;;;5055244;28;19935;-76
2022/12/12 10:08:14;;;;;;;;;;;;;;;;;;5059245;28;19966;-76
2022/12/12 10:10:40;;;;;;;;;;;;;;;;;;5054936;28;20049;-76
2022/12/12 10:13:05;;;;;;;;;;;;;;;;;;5057008;28;19917;-76
2022/12/12 10:15:31;;;;;;;;;;;;;;;;;;5058125;28;19912;-76
2022/12/12 10:17:57;;;;;;;;;;;;;;;;;;5049341;28;19924;-75
2022/12/12 10:20:23;;;;;;;;;;;;;;;;;;5062689;28;19960;-76
2022/12/12 10:22:49;;;;;;;;;;;;;;;;;;5064780;28;19996;-76
2022/12/12 10:25:15;;;;;;;;;;;;;;;;;;5062428;28;20378;-77
2022/12/12 10:27:41;;;;;;;;;;;;;;;;;;5063339;28;19923;-76
2022/12/12 10:30:07;;;;;;;;;;;;;;;;;;5067327;28;19920;-76
2022/12/12 10:32:33;;;;;;;;;;;;;;;;;;5062423;28;19916;-76
2022/12/12 10:34:58;;;;;;;;;;;;;;;;;;5059851;28;19917;-76
2022/12/12 10:37:24;;;;;;;;;;;;;;;;;;5065236;28;19959;-77
2022/12/12 10:39:50;;;;;;;;;;;;;;;;;;5066810;28;20347;-76
2022/12/12 10:42:16;;;;;;;;;;;;;;;;;;5063002;28;19915;-76
2022/12/12 10:44:42;;;;;;;;;;;;;;;;;;5062035;28;19916;-76
2022/12/12 10:47:09;;;;;;;;;;;;;;;;;;5061902;28;19921;-77
2022/12/12 10:49:35;;;;;;;;;;;;;;;;;;5064819;28;20027;-76
2022/12/12 10:52:01;;;;;;;;;;;;;;;;;;5066420;28;20022;-76
2022/12/12 10:54:26;;;;;;;;;;;;;;;;;;5064382;28;19909;-77
2022/12/12 10:56:52;;;;;;;;;;;;;;;;;;5061652;28;19909;-76
2022/12/12 10:59:18;;;;;;;;;;;;;;;;;;5064485;28;19989;-77
2022/12/12 11:01:44;;;;;;;;;;;;;;;;;;5063987;28;19912;-77
2022/12/12 11:04:10;;;;;;;;;;;;;;;;;;5064919;28;20274;-77
2022/12/12 11:06:36;;;;;;;;;;;;;;;;;;5064993;28;19912;-76
2022/12/12 11:09:01;;;;;;;;;;;;;;;;;;5066476;28;19909;-76
2022/12/12 11:11:27;;;;;;;;;;;;;;;;;;5066719;28;19912;-77
2022/12/12 11:13:53;;;;;;;;;;;;;;;;;;5066541;28;20698;-77
2022/12/12 11:16:19;;;;;;;;;;;;;;;;;;5064846;28;20339;-77
2022/12/12 11:18:45;;;;;;;;;;;;;;;;;;5060731;28;19920;-76
2022/12/12 11:21:11;;;;;;;;;;;;;;;;;;5064170;28;19916;-76
2022/12/12 11:23:37;;;;;;;;;;;;;;;;;;5065352;28;20370;-75
2022/12/12 11:26:03;;;;;;;;;;;;;;;;;;5060624;28;19908;-75
2022/12/12 11:28:28;;;;;;;;;;;;;;;;;;5055033;28;19981;-74
2022/12/12 11:30:55;;;;;;;;;;;;;;;;;;5064011;28;19913;-74
2022/12/12 11:33:21;;;;;;;;;;;;;;;;;;5053917;28;20279;-75
2022/12/12 11:35:46;;;;;;;;;;;;;;;;;;5060089;28;19999;-75
2022/12/12 11:38:12;;;;;;;;;;;;;;;;;;5058758;28;19915;-75
2022/12/12 11:40:39;;;;;;;;;;;;;;;;;;5064797;28;20351;-75
2022/12/12 11:43:04;;;;;;;;;;;;;;;;;;5059799;28;19915;-75
2022/12/12 11:45:30;;;;;;;;;;;;;;;;;;5062804;28;19908;-74
2022/12/12 11:47:56;;;;;;;;;;;;;;;;;;5066726;28;19908;-73
2022/12/12 11:50:22;;;;;;;;;;;;;;;;;;5063857;28;19963;-73
2022/12/12 11:52:48;;;;;;;;;;;;;;;;;;5062114;28;20351;-73
2022/12/12 11:55:14;;;;;;;;;;;;;;;;;;5066726;28;19912;-73
2022/12/12 11:57:40;;;;;;;;;;;;;;;;;;5061489;28;19908;-73
2022/12/12 12:00:06;;;;;;;;;;;;;;;;;;5059053;28;19916;-74
2022/12/12 12:02:31;;;;;;;;;;;;;;;;;;5058113;28;20119;-76
2022/12/12 12:04:57;;;;;;;;;;;;;;;;;;5065604;28;19915;-75
2022/12/12 12:07:23;;;;;;;;;;;;;;;;;;5054486;28;19912;-76
2022/12/12 12:09:49;;;;;;;;;;;;;;;;;;5060215;28;19917;-76
2022/12/12 12:12:15;;;;;;;;;;;;;;;;;;5063162;28;19943;-76
2022/12/12 12:14:41;;;;;;;;;;;;;;;;;;5057624;28;20005;-76
2022/12/12 12:17:07;;;;;;;;;;;;;;;;;;5066578;28;19970;-76
2022/12/12 12:19:33;;;;;;;;;;;;;;;;;;5048620;28;19919;-76
2022/12/12 12:21:59;;;;;;;;;;;;;;;;;;5063886;28;19908;-76
2022/12/12 12:24:25;;;;;;;;;;;;;;;;;;5055155;28;19905;-76
2022/12/12 12:26:51;;;;;;;;;;;;;;;;;;5061593;28;19995;-76
2022/12/12 12:29:16;;;;;;;;;;;;;;;;;;5062106;28;19916;-76
2022/12/12 12:31:42;;;;;;;;;;;;;;;;;;5064296;28;19912;-76
2022/12/12 12:34:08;;;;;;;;;;;;;;;;;;5057658;28;20877;-76
2022/12/12 12:36:34;;;;;;;;;;;;;;;;;;5063211;28;20378;-76
2022/12/12 12:39:00;;;;;;;;;;;;;;;;;;5058684;28;19909;-77
2022/12/12 12:41:26;;;;;;;;;;;;;;;;;;5051681;28;19962;-74
2022/12/12 12:43:52;;;;;;;;;;;;;;;;;;5066892;28;19915;-76
2022/12/12 12:46:18;;;;;;;;;;;;;;;;;;5062265;28;19908;-73
2022/12/12 12:48:44;;;;;;;;;;;;;;;;;;5063391;28;19966;-74
2022/12/12 12:51:09;;;;;;;;;;;;;;;;;;5067357;28;19916;-74
2022/12/12 12:53:35;;;;;;;;;;;;;;;;;;5066579;28;19908;-74
2022/12/12 12:56:01;;;;;;;;;;;;;;;;;;5061656;28;19912;-73
2022/12/12 12:58:27;;;;;;;;;;;;;;;;;;5064233;28;19962;-75
2022/12/12 13:00:53;;;;;;;;;;;;;;;;;;5062260;28;19919;-76
2022/12/12 13:03:19;;;;;;;;;;;;;;;;;;5066443;28;19988;-76
2022/12/12 13:05:45;;;;;;;;;;;;;;;;;;5061204;28;19916;-75
2022/12/12 13:08:11;;;;;;;;;;;;;;;;;;5062119;28;19908;-76
2022/12/12 13:10:37;;;;;;;;;;;;;;;;;;5059612;28;19917;-75
2022/12/12 13:13:03;;;;;;;;;;;;;;;;;;5066377;28;19909;-75
2022/12/12 13:15:29;;;;;;;;;;;;;;;;;;5060386;28;19952;-79
2022/12/12 13:17:55;;;;;;;;;;;;;;;;;;5062408;28;19909;-76
2022/12/12 13:20:21;;;;;;;;;;;;;;;;;;5064216;28;20455;-77
2022/12/12 13:22:47;;;;;;;;;;;;;;;;;;5051473;28;20298;-76
2022/12/12 13:25:13;;;;;;;;;;;;;;;;;;5062960;28;19912;-77
2022/12/12 13:27:44;;;;;;;;;;;;;;;;;;5061827;28;19961;-80
2022/12/12 13:30:10;;;;;;;;;;;;;;;;;;5067697;28;20278;-76
2022/12/12 13:32:37;;;;;;;;;;;;;;;;;;5060668;28;20054;-75
2022/12/12 13:35:03;;;;;;;;;;;;;;;;;;5063718;28;19924;-75
2022/12/12 13:37:31;;;;;;;;;;;;;;;;;;5058964;28;20352;-76
2022/12/12 13:39:57;;;;;;;;;;;;;;;;;;5059381;28;19915;-74
2022/12/12 13:42:23;;;;;;;;;;;;;;;;;;5062555;28;20274;-80
2022/12/12 13:44:49;;;;;;;;;;;;;;;;;;5053650;28;19912;-80
2022/12/12 13:47:14;;;;;;;;;;;;;;;;;;5065804;28;19909;-76
2022/12/12 13:49:40;;;;;;;;;;;;;;;;;;5064960;28;19909;-81
2022/12/12 13:52:06;;;;;;;;;;;;;;;;;;5065679;28;19915;-78
2022/12/12 13:54:32;;;;;;;;;;;;;;;;;;5066758;28;19908;-77
2022/12/12 13:56:58;;;;;;;;;;;;;;;;;;5065103;28;19912;-77
2022/12/12 13:59:24;;;;;;;;;;;;;;;;;;5070986;28;19908;-77
2022/12/12 14:01:53;;;;;;;;;;;;;;;;;;5065783;28;20416;-77
2022/12/12 14:04:18;;;;;;;;;;;;;;;;;;5069286;28;19916;-80
2022/12/12 14:06:44;;;;;;;;;;;;;;;;;;5060752;28;19923;-83
2022/12/12 14:09:10;;;;;;;;;;;;;;;;;;5070761;28;19998;-82
2022/12/12 14:11:36;;;;;;;;;;;;;;;;;;5061296;28;19969;-78
2022/12/12 14:14:02;;;;;;;;;;;;;;;;;;5067942;28;19958;-80
2022/12/12 14:16:28;;;;;;;;;;;;;;;;;;5064267;28;19908;-79
2022/12/12 14:18:54;;;;;;;;;;;;;;;;;;5069437;28;19912;-77
2022/12/12 14:21:20;;;;;;;;;;;;;;;;;;5067798;28;19927;-79
2022/12/12 14:23:46;;;;;;;;;;;;;;;;;;5060444;28;19913;-79
2022/12/12 14:26:11;;;;;;;;;;;;;;;;;;5066562;28;19908;-81
2022/12/12 14:28:37;;;;;;;;;;;;;;;;;;5065212;28;19943;-83
2022/12/12 14:31:03;;;;;;;;;;;;;;;;;;5070196;28;19919;-79
2022/12/12 14:33:29;;;;;;;;;;;;;;;;;;5062803;28;19908;-86
2022/12/12 14:35:55;;;;;;;;;;;;;;;;;;5065979;28;19912;-78
2022/12/12 14:38:21;;;;;;;;;;;;;;;;;;5060138;28;19912;-77
2022/12/12 14:40:47;;;;;;;;;;;;;;;;;;5061007;28;19908;-76
2022/12/12 14:43:13;;;;;;;;;;;;;;;;;;5063276;28;19909;-76
2022/12/12 14:45:39;;;;;;;;;;;;;;;;;;5066758;28;19908;-76
2022/12/12 14:48:06;;;;;;;;;;;;;;;;;;5062835;28;19951;-75
2022/12/12 14:50:32;;;;;;;;;;;;;;;;;;5056505;28;19924;-77
2022/12/12 14:52:58;;;;;;;;;;;;;;;;;;5058250;28;20287;-77
2022/12/12 14:55:24;;;;;;;;;;;;;;;;;;5061072;28;20310;-73
2022/12/12 14:57:50;;;;;;;;;;;;;;;;;;5060955;28;20387;-73
2022/12/12 15:00:16;;;;;;;;;;;;;;;;;;5064803;28;19912;-74
2022/12/12 15:02:42;;;;;;;;;;;;;;;;;;5061396;28;19912;-73
2022/12/12 15:05:08;;;;;;;;;;;;;;;;;;5061940;28;19920;-73
2022/12/12 15:07:34;;;;;;;;;;;;;;;;;;5065251;28;19913;-73
2022/12/12 15:10:00;;;;;;;;;;;;;;;;;;5056854;28;20444;-73
2022/12/12 15:12:26;;;;;;;;;;;;;;;;;;5058812;28;19908;-74
2022/12/12 15:14:52;;;;;;;;;;;;;;;;;;5061650;28;19917;-74
2022/12/12 15:17:18;;;;;;;;;;;;;;;;;;5062441;28;19916;-74
2022/12/12 15:19:44;;;;;;;;;;;;;;;;;;5061713;28;20387;-74
2022/12/12 15:22:10;;;;;;;;;;;;;;;;;;5057196;28;19940;-77
2022/12/12 15:24:36;;;;;;;;;;;;;;;;;;5060156;28;19916;-75
2022/12/12 15:27:02;;;;;;;;;;;;;;;;;;5066756;28;19916;-76
2022/12/12 15:29:27;;;;;;;;;;;;;;;;;;5055244;28;19916;-74
2022/12/12 15:31:53;;;;;;;;;;;;;;;;;;5060588;28;19916;-76
2022/12/12 15:34:19;;;;;;;;;;;;;;;;;;5059206;28;19939;-77
2022/12/12 15:36:45;;;;;;;;;;;;;;;;;;5080452;28;19962;-77
2022/12/12 15:39:11;;;;;;;;;;;;;;;;;;5061095;28;19924;-79
2022/12/12 15:41:37;;;;;;;;;;;;;;;;;;5059013;28;19995;-75
2022/12/12 15:44:06;;;;;;;;;;;;;;;;;;5062641;28;20007;-80
2022/12/12 15:46:31;;;;;;;;;;;;;;;;;;5066981;28;20436;-74
2022/12/12 15:48:58;;;;;;;;;;;;;;;;;;5062439;28;19963;-74
2022/12/12 15:51:24;;;;;;;;;;;;;;;;;;5061127;28;19938;-76
2022/12/12 15:53:49;;;;;;;;;;;;;;;;;;5062428;28;19909;-76
2022/12/12 15:56:15;;;;;;;;;;;;;;;;;;5063514;28;19911;-79
2022/12/12 15:58:41;;;;;;;;;;;;;;;;;;5066993;28;19912;-78
2022/12/12 16:01:08;;;;;;;;;;;;;;;;;;5055408;28;19944;-78
2022/12/12 16:03:34;;;;;;;;;;;;;;;;;;5065480;28;19908;-75
2022/12/12 16:06:01;;;;;;;;;;;;;;;;;;5066020;28;20558;-75
2022/12/12 16:08:32;;;;;;;;;;;;;;;;;;5069097;28;19912;-75
2022/12/12 16:10:57;;;;;;;;;;;;;;;;;;5062862;28;20002;-74
2022/12/12 16:13:23;;;;;;;;;;;;;;;;;;5057990;28;19991;-74
2022/12/12 16:15:49;;;;;;;;;;;;;;;;;;5056365;28;19955;-75
2022/12/12 16:18:15;;;;;;;;;;;;;;;;;;5063117;28;19927;-75
2022/12/12 16:20:41;;;;;;;;;;;;;;;;;;5064341;28;19916;-75
2022/12/12 16:23:10;;;;;;;;;;;;;;;;;;5063481;28;19904;-75
2022/12/12 16:25:36;;;;;;;;;;;;;;;;;;5055583;28;19970;-75
2022/12/12 16:28:02;;;;;;;;;;;;;;;;;;5052044;28;19908;-75
2022/12/12 16:30:27;;;;;;;;;;;;;;;;;;5060301;28;19962;-74
2022/12/12 16:32:53;;;;;;;;;;;;;;;;;;5053901;28;19912;-75
2022/12/12 16:35:19;;;;;;;;;;;;;;;;;;5056822;28;19984;-72
2022/12/12 16:37:45;;;;;;;;;;;;;;;;;;5059927;28;19913;-75
2022/12/12 16:40:11;;;;;;;;;;;;;;;;;;5049340;28;19959;-75
2022/12/12 16:42:37;;;;;;;;;;;;;;;;;;5063796;28;20355;-74
2022/12/12 16:45:03;;;;;;;;;;;;;;;;;;5055415;28;20303;-75
2022/12/12 16:47:29;;;;;;;;;;;;;;;;;;5063976;28;19915;-75
2022/12/12 16:49:55;;;;;;;;;;;;;;;;;;5063850;28;19912;-75
2022/12/12 16:52:21;;;;;;;;;;;;;;;;;;5057605;28;20019;-75